Time;durP1;ratioP1;P1;durP2;ratioP2;P2;SDS_P1;SDS_P2;PMS_P1;PMS_P2;Temp;Humidity;BMP_temperature;BMP_pressure;BME280_temperature;BME280_humidity;BME280_pressure;Samples;Min_cycle;Max_cycle;Signal;HPM_P1;HPM_P2
2022/01/10 00:01:09;;;;;;;37.75;21.20;;;;;;;6.29;100.00;100000.09;4861920;29;20383;-71
2022/01/10 00:03:55;;;;;;;37.38;21.67;;;;;;;6.27;100.00;99994.06;4862543;29;20034;-71
2022/01/10 00:06:40;;;;;;;37.63;22.60;;;;;;;6.60;100.00;100002.31;4862452;29;20045;-72
2022/01/10 00:09:26;;;;;;;38.88;22.13;;;;;;;6.42;100.00;99992.13;4861157;29;20061;-72
2022/01/10 00:12:12;;;;;;;40.92;22.85;;;;;;;6.59;100.00;99994.53;4862006;29;20286;-71
2022/01/10 00:14:58;;;;;;;39.28;21.20;;;;;;;6.30;100.00;99997.47;4861756;29;20037;-72
2022/01/10 00:17:44;;;;;;;45.83;22.30;;;;;;;6.08;100.00;99989.94;4861854;29;20061;-71
2022/01/10 00:20:30;;;;;;;39.97;22.58;;;;;;;6.35;100.00;99987.03;4862034;29;20455;-71
2022/01/10 00:23:16;;;;;;;41.30;21.98;;;;;;;6.43;100.00;99974.78;4861776;29;20108;-71
2022/01/10 00:26:02;;;;;;;54.85;26.48;;;;;;;6.54;100.00;99976.38;4861913;29;20025;-71
2022/01/10 00:28:48;;;;;;;54.17;25.60;;;;;;;6.54;100.00;99980.69;4861873;29;20078;-72
2022/01/10 00:31:34;;;;;;;53.05;26.92;;;;;;;6.46;100.00;99972.13;4862206;29;20096;-71
2022/01/10 00:34:19;;;;;;;57.75;27.00;;;;;;;6.53;100.00;99978.97;4861437;29;20033;-71
2022/01/10 00:37:05;;;;;;;55.08;26.27;;;;;;;6.80;100.00;99976.88;4861881;29;20029;-71
2022/01/10 00:39:51;;;;;;;64.28;27.75;;;;;;;6.48;100.00;99972.97;4862015;29;20091;-71
2022/01/10 00:42:37;;;;;;;68.13;28.33;;;;;;;6.40;100.00;99974.81;4861446;29;20105;-71
2022/01/10 00:45:28;;;;;;;72.13;28.00;;;;;;;6.28;100.00;99968.03;4862174;29;20033;-72
2022/01/10 00:48:13;;;;;;;69.40;29.02;;;;;;;6.11;100.00;99971.72;4861749;29;20034;-71
2022/01/10 00:50:59;;;;;;;89.85;32.00;;;;;;;5.94;100.00;99966.69;4847779;29;20041;-74
2022/01/10 00:53:47;;;;;;;84.30;31.80;;;;;;;5.92;100.00;99971.06;4848873;29;20108;-70
2022/01/10 00:56:33;;;;;;;111.05;34.33;;;;;;;6.23;100.00;99974.19;5328590;23;20060;-71
2022/01/10 00:59:19;;;;;;;104.13;35.63;;;;;;;6.31;100.00;99973.19;4899053;29;20041;-72
2022/01/10 01:02:52;;;;;;;85.45;35.58;;;;;;;6.32;100.00;99974.94;4898308;29;20449;-72
2022/01/10 01:05:41;;;;;;;110.15;37.58;;;;;;;6.46;100.00;99973.00;4894438;29;20461;-73
2022/01/10 01:08:29;;;;;;;92.00;35.67;;;;;;;6.68;100.00;99976.19;4879503;29;20029;-72
2022/01/10 01:14:10;;;;;;;123.10;38.10;;;;;;;6.79;100.00;99966.50;4879526;29;20025;-72
2022/01/10 01:17:13;;;;;;;87.65;35.00;;;;;;;6.46;100.00;99964.31;4880928;29;20040;-72
2022/01/10 01:25:49;;;;;;;85.75;35.33;;;;;;;6.29;100.00;99968.88;4883343;29;20040;-72
2022/01/10 01:28:34;;;;;;;85.78;32.78;;;;;;;6.23;100.00;99966.38;4882906;29;20130;-71
2022/01/10 01:31:21;;;;;;;73.88;33.35;;;;;;;6.47;100.00;99964.31;4882163;29;20466;-72
2022/01/10 01:34:07;;;;;;;77.07;31.33;;;;;;;6.23;100.00;99956.81;4883434;29;20544;-72
2022/01/10 01:36:55;;;;;;;72.35;31.77;;;;;;;6.08;100.00;99962.22;4882747;29;20037;-72
2022/01/10 01:39:41;;;;;;;81.05;33.35;;;;;;;6.29;100.00;99966.28;4883859;29;20120;-72
2022/01/10 01:45:15;;;;;;;76.35;31.70;;;;;;;6.45;100.00;99965.22;4883275;29;20029;-72
2022/01/10 01:48:04;;;;;;;72.53;30.98;;;;;;;6.69;100.00;99964.88;4882848;29;20057;-71
2022/01/10 01:50:50;;;;;;;70.65;31.55;;;;;;;6.79;100.00;99951.72;4882857;29;20442;-72
2022/01/10 01:53:36;;;;;;;69.95;30.45;;;;;;;6.72;100.00;99950.09;4883254;29;20143;-72
2022/01/10 01:56:23;;;;;;;75.78;30.33;;;;;;;6.61;100.00;99952.00;4882013;29;20113;-72
2022/01/10 01:59:09;;;;;;;71.72;29.63;;;;;;;6.31;100.00;99957.56;4883682;29;20040;-72
2022/01/10 02:01:55;;;;;;;79.85;31.40;;;;;;;6.38;100.00;99958.38;4869622;29;20037;-71
2022/01/10 02:04:41;;;;;;;68.78;28.75;;;;;;;6.65;100.00;99958.00;4883942;29;20447;-72
2022/01/10 02:07:27;;;;;;;71.85;30.80;;;;;;;6.57;100.00;99950.31;4882231;29;20459;-72
2022/01/10 02:10:13;;;;;;;68.25;29.73;;;;;;;6.81;100.00;99951.69;4882371;29;20404;-72
2022/01/10 02:12:59;;;;;;;79.40;31.05;;;;;;;6.78;100.00;99960.41;4882770;29;20064;-72
2022/01/10 02:18:34;;;;;;;82.63;30.30;;;;;;;6.44;100.00;99960.91;4883351;29;20025;-72
2022/01/10 02:21:20;;;;;;;79.45;31.15;;;;;;;6.66;100.00;99964.91;4882282;29;20374;-72
2022/01/10 02:24:06;;;;;;;74.45;30.77;;;;;;;7.00;100.00;99964.44;4883469;29;20021;-71
2022/01/10 02:26:52;;;;;;;85.00;32.55;;;;;;;6.91;100.00;99968.91;4882649;29;20129;-72
2022/01/10 02:29:38;;;;;;;71.68;30.17;;;;;;;6.99;100.00;99975.72;4883147;29;20025;-72
2022/01/10 02:32:23;;;;;;;75.85;32.88;;;;;;;7.00;100.00;99973.97;4880756;29;20037;-71
2022/01/10 02:35:28;;;;;;;80.75;32.03;;;;;;;7.23;100.00;99977.94;4881983;29;20065;-72
2022/01/10 02:38:14;;;;;;;80.50;31.42;;;;;;;7.12;100.00;99987.66;4882093;29;20120;-71
2022/01/10 02:41:00;;;;;;;68.10;30.70;;;;;;;7.32;100.00;99985.59;4882276;29;20032;-72
2022/01/10 02:43:46;;;;;;;71.10;30.42;;;;;;;7.22;100.00;99976.22;4881587;29;20040;-72
2022/01/10 02:46:35;;;;;;;73.25;30.70;;;;;;;7.15;100.00;99985.00;4868514;29;20032;-72
2022/01/10 02:49:28;;;;;;;75.68;31.60;;;;;;;7.27;100.00;99986.59;4882116;29;20032;-71
2022/01/10 02:52:14;;;;;;;69.40;28.50;;;;;;;7.30;100.00;99999.53;4882266;29;20025;-71
2022/01/10 02:55:01;;;;;;;67.40;28.42;;;;;;;6.80;100.00;99996.84;4882061;29;20037;-71
2022/01/10 02:57:47;;;;;;;73.28;29.63;;;;;;;6.94;100.00;99998.38;4881563;29;20444;-71
2022/01/10 03:00:32;;;;;;;66.43;29.45;;;;;;;7.09;100.00;99987.72;4881248;29;20040;-72
2022/01/10 03:03:18;;;;;;;73.03;28.40;;;;;;;6.73;100.00;99996.06;4882350;29;20029;-70
2022/01/10 03:06:04;;;;;;;70.70;28.75;;;;;;;7.07;100.00;99991.25;4881729;29;20060;-72
2022/01/10 03:08:50;;;;;;;63.35;27.73;;;;;;;7.05;100.00;99998.19;4881117;29;20032;-71
2022/01/10 03:11:37;;;;;;;76.35;29.65;;;;;;;7.17;100.00;99995.41;4882200;29;20036;-71
2022/01/10 03:15:17;;;;;;;78.13;30.15;;;;;;;7.44;100.00;99993.22;4881714;29;20029;-72
2022/01/10 03:18:03;;;;;;;77.05;29.88;;;;;;;7.19;100.00;100001.47;4881186;29;20124;-71
2022/01/10 03:20:49;;;;;;;66.78;28.40;;;;;;;6.94;100.00;100002.69;4867784;29;20025;-71
2022/01/10 03:23:34;;;;;;;72.70;30.13;;;;;;;7.19;100.00;100001.47;4881248;29;20025;-72
2022/01/10 03:26:20;;;;;;;70.38;29.00;;;;;;;7.25;100.00;99998.75;4880529;29;20447;-71
2022/01/10 03:29:06;;;;;;;65.78;28.20;;;;;;;7.16;100.00;99991.09;4880847;29;20533;-71
2022/01/10 03:31:53;;;;;;;67.28;29.88;;;;;;;7.03;100.00;100002.59;4880612;29;20117;-71
2022/01/10 03:34:39;;;;;;;69.10;29.70;;;;;;;6.86;100.00;100004.56;4881718;29;20109;-72
2022/01/10 03:37:25;;;;;;;64.68;29.40;;;;;;;7.24;100.00;100002.25;4880350;29;20033;-72
2022/01/10 03:40:11;;;;;;;72.05;30.35;;;;;;;7.11;100.00;100005.94;4868114;29;20117;-72
2022/01/10 03:42:57;;;;;;;73.55;29.23;;;;;;;6.97;100.00;100019.16;4881106;29;20025;-71
2022/01/10 03:45:43;;;;;;;74.07;31.63;;;;;;;6.78;100.00;100022.88;4880874;29;20028;-71
2022/01/10 03:48:29;;;;;;;76.30;30.88;;;;;;;6.63;100.00;100022.25;4881271;29;20474;-71
2022/01/10 03:51:14;;;;;;;92.30;31.13;;;;;;;6.29;100.00;100026.09;4880765;29;20116;-71
2022/01/10 03:54:00;;;;;;;91.90;32.10;;;;;;;6.33;100.00;100030.41;4880644;29;20040;-71
2022/01/10 03:56:47;;;;;;;81.68;32.17;;;;;;;6.37;100.00;100029.47;4880008;29;20141;-71
2022/01/10 04:00:00;;;;;;;78.53;31.83;;;;;;;6.32;100.00;100045.16;4881051;29;20209;-71
2022/01/10 04:02:56;;;;;;;81.38;33.00;;;;;;;6.06;100.00;100044.56;4879662;29;20483;-72
2022/01/10 04:05:42;;;;;;;84.18;33.15;;;;;;;6.09;100.00;100043.66;4881110;29;20035;-72
2022/01/10 04:08:28;;;;;;;73.68;31.25;;;;;;;6.25;100.00;100043.50;4880110;29;20112;-71
2022/01/10 04:11:13;;;;;;;75.30;32.20;;;;;;;6.18;100.00;100049.63;4880860;29;20036;-71
2022/01/10 04:13:59;;;;;;;66.35;31.13;;;;;;;6.29;100.00;100050.38;4880121;29;20048;-71
2022/01/10 04:16:45;;;;;;;65.18;30.08;;;;;;;6.21;100.00;100054.81;4880793;29;20045;-73
2022/01/10 04:19:31;;;;;;;76.72;32.90;;;;;;;6.33;100.00;100061.59;4880024;29;20060;-72
2022/01/10 04:22:16;;;;;;;65.40;31.13;;;;;;;6.26;100.00;100065.19;4880774;29;20119;-72
2022/01/10 04:25:04;;;;;;;75.68;32.60;;;;;;;6.34;100.00;100060.75;4880769;29;20025;-71
2022/01/10 04:27:50;;;;;;;75.47;32.17;;;;;;;6.43;100.00;100064.09;4880153;29;20120;-72
2022/01/10 04:30:37;;;;;;;70.15;32.15;;;;;;;6.20;100.00;100063.50;4880044;29;20036;-71
2022/01/10 04:33:28;;;;;;;69.75;33.83;;;;;;;6.25;100.00;100066.91;4880608;29;20430;-70
2022/01/10 04:36:14;;;;;;;69.78;32.53;;;;;;;6.31;100.00;100060.78;4879843;29;20493;-71
2022/01/10 04:39:00;;;;;;;60.83;30.02;;;;;;;6.33;100.00;100075.50;4880575;29;20121;-72
2022/01/10 04:45:29;;;;;;;61.13;29.88;;;;;;;6.47;100.00;100072.75;4880520;29;20036;-71
2022/01/10 04:48:17;;;;;;;58.35;30.00;;;;;;;6.64;100.00;100079.47;4879996;29;20033;-72
2022/01/10 04:51:15;;;;;;;60.60;30.25;;;;;;;6.59;100.00;100070.84;4880814;29;20060;-72
2022/01/10 04:54:01;;;;;;;67.45;31.05;;;;;;;6.60;100.00;100079.53;4879739;29;20033;-71
2022/01/10 04:56:46;;;;;;;56.28;29.13;;;;;;;6.34;100.00;100078.97;4881154;29;20045;-72
2022/01/10 04:59:35;;;;;;;62.50;29.73;;;;;;;6.68;100.00;100078.56;4883614;29;20482;-71
2022/01/10 05:02:21;;;;;;;67.25;30.67;;;;;;;6.76;100.00;100071.53;4883435;29;20033;-72
2022/01/10 05:12:51;;;;;;;72.68;35.55;;;;;;;6.66;100.00;100074.22;4937698;23;20056;-71
2022/01/10 05:15:37;;;;;;;111.15;40.13;;;;;;;6.69;100.00;100089.81;4899637;29;20104;-72
2022/01/10 05:18:23;;;;;;;85.30;37.72;;;;;;;6.69;100.00;100085.47;4883027;29;20326;-73
2022/01/10 05:21:10;;;;;;;91.70;38.60;;;;;;;6.58;100.00;100089.06;4883792;29;20040;-72
2022/01/10 05:23:55;;;;;;;127.82;43.67;;;;;;;6.49;100.00;100086.56;4884070;29;20040;-73
2022/01/10 05:26:41;;;;;;;107.47;40.17;;;;;;;6.60;100.00;100097.72;4882843;29;20025;-72
2022/01/10 05:29:27;;;;;;;95.22;40.38;;;;;;;6.58;100.00;100096.88;4882948;29;20029;-71
2022/01/10 05:32:13;;;;;;;116.00;42.15;;;;;;;6.72;100.00;100097.59;4882768;29;20036;-72
2022/01/10 05:34:59;;;;;;;119.00;43.30;;;;;;;6.63;100.00;100098.56;4882966;29;20021;-72
2022/01/10 05:37:44;;;;;;;110.32;42.67;;;;;;;6.69;100.00;100097.63;4882649;29;20116;-72
2022/01/10 05:40:30;;;;;;;110.85;43.75;;;;;;;6.84;100.00;100105.25;4869893;29;20079;-73
2022/01/10 05:43:16;;;;;;;112.80;42.50;;;;;;;6.76;100.00;100109.69;4882603;29;20025;-73
2022/01/10 05:46:06;;;;;;;109.53;44.35;;;;;;;6.80;100.00;100103.56;4883744;29;20029;-71
2022/01/10 05:48:54;;;;;;;111.38;45.30;;;;;;;7.18;100.00;100106.53;4882731;29;20180;-73
2022/01/10 05:51:40;;;;;;;129.63;45.78;;;;;;;6.85;100.00;100114.78;4883177;29;20025;-73
2022/01/10 06:02:51;;;;;;;95.40;39.35;;;;;;;6.90;100.00;100116.44;5620332;23;20071;-72
2022/01/10 06:05:37;;;;;;;90.38;37.97;;;;;;;6.89;100.00;100117.34;4897974;29;20115;-73
2022/01/10 06:08:23;;;;;;;112.68;39.67;;;;;;;6.85;100.00;100122.59;4882066;29;20104;-72
2022/01/10 06:11:09;;;;;;;91.85;36.85;;;;;;;6.87;100.00;100126.06;4882578;29;20387;-72
2022/01/10 06:13:54;;;;;;;88.60;35.78;;;;;;;6.80;100.00;100132.22;4881741;29;20121;-71
2022/01/10 06:16:40;;;;;;;72.55;33.28;;;;;;;6.90;100.00;100131.19;4881482;29;20367;-72
2022/01/10 06:19:26;;;;;;;67.65;32.17;;;;;;;7.11;100.00;100138.78;4882370;29;20033;-72
2022/01/10 06:22:52;;;;;;;51.10;23.90;;;;;;;6.93;100.00;100144.19;4869354;29;20029;-71
2022/01/10 06:25:40;;;;;;;38.45;20.08;;;;;;;6.81;100.00;100146.94;4882705;29;20040;-72
2022/01/10 06:28:26;;;;;;;39.28;20.40;;;;;;;6.84;100.00;100150.38;4881959;29;20037;-73
2022/01/10 06:31:13;;;;;;;35.28;18.38;;;;;;;6.82;100.00;100148.66;4882926;29;20033;-72
2022/01/10 06:33:59;;;;;;;29.95;16.48;;;;;;;6.86;100.00;100160.75;4881738;29;20132;-72
2022/01/10 06:36:45;;;;;;;38.67;21.92;;;;;;;6.69;100.00;100155.75;4869138;29;20120;-72
2022/01/10 06:39:31;;;;;;;41.58;22.42;;;;;;;6.83;100.00;100147.78;4882869;29;20055;-71
2022/01/10 06:42:17;;;;;;;30.00;17.52;;;;;;;6.92;100.00;100158.97;4882363;29;20060;-72
2022/01/10 06:47:41;;;;;;;33.10;17.33;;;;;;;6.78;100.00;100162.59;5663225;23;20123;-75
2022/01/10 06:50:27;;;;;;;31.25;17.90;;;;;;;6.69;100.00;100168.78;4899593;29;20040;-72
2022/01/10 06:53:22;;;;;;;32.90;19.35;;;;;;;6.58;100.00;100180.16;4899851;29;20059;-72
2022/01/10 06:58:43;;;;;;;52.53;30.02;;;;;;;6.70;100.00;100178.28;5092667;23;20060;-73
2022/01/10 07:01:30;;;;;;;52.40;27.00;;;;;;;6.40;100.00;100165.59;4900055;29;20112;-73
2022/01/10 07:04:15;;;;;;;43.70;23.67;;;;;;;6.40;100.00;100178.63;4900605;29;20088;-73
2022/01/10 07:07:01;;;;;;;38.28;20.90;;;;;;;6.41;100.00;100187.25;4886471;29;20093;-73
2022/01/10 07:09:47;;;;;;;41.13;22.48;;;;;;;6.33;100.00;100199.47;4882210;29;20160;-72
2022/01/10 07:12:33;;;;;;;44.70;25.52;;;;;;;6.42;100.00;100199.38;4881711;29;20047;-73
2022/01/10 07:15:20;;;;;;;31.35;19.52;;;;;;;6.25;100.00;100202.16;4881551;29;20423;-72
2022/01/10 07:18:06;;;;;;;27.33;16.80;;;;;;;6.26;100.00;100208.22;4880334;29;20107;-70
2022/01/10 07:20:51;;;;;;;32.33;19.40;;;;;;;6.21;100.00;100207.38;4880684;29;20021;-70
2022/01/10 07:23:37;;;;;;;31.35;17.75;;;;;;;6.22;100.00;100219.53;4881233;29;20032;-70
2022/01/10 07:26:23;;;;;;;28.05;17.02;;;;;;;6.11;100.00;100213.53;4881183;29;20033;-71
2022/01/10 07:29:11;;;;;;;32.50;20.33;;;;;;;6.15;100.00;100225.66;4881158;29;20426;-70
2022/01/10 07:31:57;;;;;;;25.90;14.98;;;;;;;6.16;100.00;100236.03;4880452;29;20064;-69
2022/01/10 07:34:44;;;;;;;21.73;13.30;;;;;;;6.10;100.00;100225.66;4881528;29;20037;-69
2022/01/10 07:37:30;;;;;;;33.53;19.33;;;;;;;6.18;100.00;100229.06;4881170;29;20181;-72
2022/01/10 07:40:15;;;;;;;27.30;16.50;;;;;;;6.18;100.00;100236.03;4881616;29;20047;-69
2022/01/10 07:43:01;;;;;;;19.67;13.50;;;;;;;5.98;100.00;100233.56;4880629;29;20032;-70
2022/01/10 07:45:47;;;;;;;23.05;15.00;;;;;;;5.98;100.00;100235.31;4880413;29;20025;-71
2022/01/10 07:48:35;;;;;;;22.58;13.50;;;;;;;5.99;100.00;100247.44;4867970;29;20510;-71
2022/01/10 07:51:26;;;;;;;18.40;11.85;;;;;;;5.96;100.00;100257.84;4880985;29;20043;-71
2022/01/10 07:54:12;;;;;;;18.73;12.32;;;;;;;6.03;100.00;100257.78;4881190;29;20061;-70
2022/01/10 07:56:58;;;;;;;18.33;12.10;;;;;;;6.14;100.00;100266.38;4866943;29;20035;-70
2022/01/10 08:03:26;;;;;;;23.63;14.88;;;;;;;5.88;100.00;100251.81;4880717;29;20029;-71
2022/01/10 08:06:12;;;;;;;21.55;13.90;;;;;;;5.99;100.00;100258.69;4879643;29;20043;-71
2022/01/10 08:09:01;;;;;;;21.95;13.52;;;;;;;5.96;100.00;100263.03;4880739;29;20029;-71
2022/01/10 08:11:47;;;;;;;28.13;16.33;;;;;;;5.85;100.00;100267.44;4879649;29;20078;-70
2022/01/10 08:14:33;;;;;;;22.55;13.88;;;;;;;5.86;100.00;100267.44;4880272;29;20037;-70
2022/01/10 08:17:19;;;;;;;20.10;13.63;;;;;;;5.91;100.00;100268.25;4880959;29;20052;-69
2022/01/10 08:20:05;;;;;;;25.50;16.50;;;;;;;5.95;100.00;100261.31;4879976;29;20029;-70
2022/01/10 08:22:51;;;;;;;27.65;15.05;;;;;;;5.84;100.00;100256.19;4880168;29;20033;-70
2022/01/10 08:25:37;;;;;;;24.45;15.25;;;;;;;5.67;100.00;100270.13;4879830;29;20021;-70
2022/01/10 08:28:23;;;;;;;26.85;16.70;;;;;;;5.84;100.00;100277.00;4879751;29;20374;-70
2022/01/10 08:31:11;;;;;;;26.50;16.00;;;;;;;5.87;100.00;100270.91;4879563;29;20061;-70
2022/01/10 08:33:57;;;;;;;23.70;14.10;;;;;;;5.92;100.00;100270.00;4881059;29;20351;-70
2022/01/10 08:36:43;;;;;;;22.88;13.43;;;;;;;5.83;100.00;100275.25;4879618;29;20029;-71
2022/01/10 08:39:29;;;;;;;24.48;14.73;;;;;;;5.97;100.00;100276.03;4880063;29;20033;-70
2022/01/10 08:42:17;;;;;;;25.83;16.08;;;;;;;5.79;100.00;100280.44;4880386;29;20029;-70
2022/01/10 08:45:08;;;;;;;30.52;18.58;;;;;;;5.82;100.00;100285.66;4880571;29;20029;-69
2022/01/10 08:47:54;;;;;;;34.80;20.52;;;;;;;5.73;100.00;100289.13;4880301;29;20478;-68
2022/01/10 09:00:48;;;;;;;20.30;13.38;;;;;;;5.65;100.00;100279.63;5966962;23;20043;31
2022/01/10 09:03:34;;;;;;;19.80;12.68;;;;;;;5.70;100.00;100280.50;4860766;29;20212;-69
2022/01/10 09:06:20;;;;;;;19.40;13.48;;;;;;;5.85;100.00;100277.81;4873310;29;20136;-70
2022/01/10 09:09:06;;;;;;;22.63;14.20;;;;;;;5.77;100.00;100276.97;4860370;29;20102;-70
2022/01/10 09:11:52;;;;;;;30.75;17.58;;;;;;;5.64;100.00;100275.31;4859802;29;20478;-70
2022/01/10 09:14:38;;;;;;;25.67;16.42;;;;;;;5.67;100.00;100276.19;4860654;29;20132;-69
2022/01/10 09:17:24;;;;;;;24.50;13.27;;;;;;;5.66;100.00;100274.44;4861475;29;20068;-70
2022/01/10 09:20:10;;;;;;;21.58;13.10;;;;;;;5.73;100.00;100272.66;4860485;29;20033;-70
2022/01/10 09:22:56;;;;;;;24.60;16.02;;;;;;;5.66;100.00;100273.59;4861930;29;20033;-70
2022/01/10 09:25:42;;;;;;;21.60;13.55;;;;;;;5.87;100.00;100278.69;4860330;29;20029;-69
2022/01/10 09:28:27;;;;;;;23.85;14.30;;;;;;;5.78;100.00;100281.31;4861659;29;20030;-70
2022/01/10 09:31:14;;;;;;;19.00;12.18;;;;;;;5.59;100.00;100284.88;4861345;29;20026;-70
2022/01/10 09:34:00;;;;;;;20.77;13.68;;;;;;;5.81;100.00;100290.00;4860733;29;20508;-70
2022/01/10 09:36:46;;;;;;;20.85;12.77;;;;;;;5.62;100.00;100285.72;4861158;29;20120;-69
2022/01/10 09:39:32;;;;;;;29.85;17.85;;;;;;;5.69;100.00;100281.34;4862314;29;20087;-70
2022/01/10 09:42:18;;;;;;;24.83;13.73;;;;;;;5.61;100.00;100283.13;4862228;29;20034;-71
2022/01/10 09:45:06;;;;;;;21.50;14.38;;;;;;;5.69;100.00;100286.53;4863751;29;20026;-70
2022/01/10 09:47:52;;;;;;;23.50;14.13;;;;;;;5.46;100.00;100283.22;4863740;29;20041;-70
2022/01/10 09:50:40;;;;;;;19.15;12.60;;;;;;;5.50;100.00;100290.13;4864346;29;20028;-70
2022/01/10 09:53:26;;;;;;;26.70;16.40;;;;;;;5.51;100.00;100291.84;4864557;29;20033;-69
2022/01/10 09:56:12;;;;;;;44.15;21.83;;;;;;;5.49;100.00;100286.63;4864060;29;20053;-70
2022/01/10 09:58:59;;;;;;;34.60;18.52;;;;;;;5.47;100.00;100280.59;4864804;29;20101;-70
2022/01/10 10:01:50;;;;;;;32.95;19.60;;;;;;;5.55;100.00;100280.56;4862764;29;20085;-70
2022/01/10 10:07:41;;;;;;;39.78;23.55;;;;;;;5.40;100.00;100290.13;5610126;23;20477;-70
2022/01/10 10:10:28;;;;;;;42.35;22.08;;;;;;;5.53;100.00;100285.75;4900554;29;20048;-71
2022/01/10 10:13:15;;;;;;;44.13;24.85;;;;;;;5.52;100.00;100284.03;4899766;29;20403;-72
2022/01/10 10:16:01;;;;;;;40.88;23.15;;;;;;;5.34;100.00;100284.09;4894292;29;20045;-69
2022/01/10 10:18:47;;;;;;;38.70;22.73;;;;;;;5.53;100.00;100283.16;4882062;29;20033;-70
2022/01/10 10:21:34;;;;;;;39.75;23.00;;;;;;;5.77;100.00;100287.38;4882752;29;20029;-70
2022/01/10 10:24:22;;;;;;;45.42;25.90;;;;;;;5.68;100.00;100298.69;4882177;29;20131;-70
2022/01/10 10:27:08;;;;;;;47.38;26.75;;;;;;;5.68;100.00;100296.09;4882432;29;20358;-70
2022/01/10 10:33:47;;;;;;;54.50;30.90;;;;;;;5.54;100.00;100284.03;4882273;29;20383;-70
2022/01/10 10:36:36;;;;;;;51.25;27.67;;;;;;;5.40;100.00;100278.91;4881942;29;20032;-70
2022/01/10 10:39:22;;;;;;;47.80;25.13;;;;;;;5.56;100.00;100279.69;4882650;29;20029;-71
2022/01/10 10:42:10;;;;;;;49.33;26.15;;;;;;;5.51;100.00;100287.50;4881900;29;20108;-70
2022/01/10 10:44:56;;;;;;;47.95;27.35;;;;;;;5.70;100.00;100289.13;4867988;29;20033;-71
2022/01/10 10:47:44;;;;;;;37.60;23.42;;;;;;;5.63;100.00;100284.88;4869509;29;20037;-70
2022/01/10 10:50:41;;;;;;;41.72;22.58;;;;;;;5.68;100.00;100290.91;4882095;29;20051;-70
2022/01/10 10:53:29;;;;;;;48.03;29.13;;;;;;;5.92;100.00;100296.00;4867829;29;20044;-70
2022/01/10 10:56:15;;;;;;;45.10;27.23;;;;;;;5.63;100.00;100291.78;4881048;29;20052;-71
2022/01/10 10:59:04;;;;;;;41.75;25.45;;;;;;;5.61;100.00;100289.19;4882202;29;20206;-71
2022/01/10 11:01:51;;;;;;;37.05;21.85;;;;;;;5.59;100.00;100284.88;4881126;29;20044;-71
2022/01/10 11:04:37;;;;;;;35.13;20.75;;;;;;;5.44;100.00;100291.00;4882180;29;20044;-70
2022/01/10 11:07:24;;;;;;;35.53;19.13;;;;;;;5.30;100.00;100295.38;4868085;29;20053;-71
2022/01/10 11:10:10;;;;;;;32.17;18.85;;;;;;;5.29;100.00;100299.72;4869104;29;20514;-71
2022/01/10 11:27:08;;;;;;;35.03;20.67;;;;;;;5.35;100.00;100302.28;5797476;23;20060;-70
2022/01/10 11:29:56;;;;;;;32.55;19.33;;;;;;;5.24;100.00;100303.19;4900236;29;20476;-70
2022/01/10 11:33:05;;;;;;;32.78;20.05;;;;;;;5.17;100.00;100306.66;4885567;29;20043;-69
2022/01/10 11:35:52;;;;;;;34.50;19.65;;;;;;;5.24;100.00;100317.00;4895446;29;20036;-70
2022/01/10 11:38:41;;;;;;;35.58;19.90;;;;;;;5.27;100.00;100308.38;4881175;29;20029;-70
2022/01/10 11:41:30;;;;;;;35.70;20.40;;;;;;;5.14;100.00;100310.13;4881021;29;20082;-70
2022/01/10 11:44:18;;;;;;;36.05;21.25;;;;;;;5.02;100.00;100314.47;4881028;29;20469;-70
2022/01/10 11:47:03;;;;;;;35.78;20.92;;;;;;;5.16;100.00;100321.34;4880998;29;20128;-71
2022/01/10 11:50:31;;;;;;;37.63;21.58;;;;;;;5.13;100.00;100328.31;4881017;29;20343;-71
2022/01/10 11:53:18;;;;;;;36.05;21.55;;;;;;;5.18;100.00;100323.97;4881438;29;20033;-70
2022/01/10 11:56:23;;;;;;;37.78;21.02;;;;;;;5.33;100.00;100337.78;4879287;29;20363;-69
2022/01/10 11:59:10;;;;;;;38.25;21.50;;;;;;;5.23;100.00;100333.47;4881118;29;20474;-70
2022/01/10 12:02:10;;;;;;;38.72;21.50;;;;;;;5.39;100.00;100327.38;4880288;29;20096;-70
2022/01/10 12:05:00;;;;;;;35.10;20.55;;;;;;;5.17;100.00;100328.31;4881179;29;20039;-70
2022/01/10 12:15:03;;;;;;;36.85;20.58;;;;;;;5.27;100.00;100322.22;5082758;23;20382;-70
2022/01/10 12:17:49;;;;;;;31.60;18.50;;;;;;;5.19;100.00;100329.16;4881107;29;20112;-71
2022/01/10 12:20:35;;;;;;;32.88;18.90;;;;;;;5.16;100.00;100321.34;4880002;29;20033;-71
2022/01/10 12:23:21;;;;;;;32.28;19.23;;;;;;;4.91;100.00;100343.03;4880317;29;20025;-71
2022/01/10 12:26:07;;;;;;;30.30;18.50;;;;;;;5.13;100.00;100344.75;4879346;29;20029;-70
2022/01/10 12:52:21;;;;;;;41.55;22.95;;;;;;;5.00;100.00;100378.53;5149647;23;20419;-71
2022/01/10 12:55:08;;;;;;;38.92;20.50;;;;;;;4.83;100.00;100386.28;4898442;29;20382;-70
2022/01/10 12:57:54;;;;;;;36.20;19.73;;;;;;;4.78;100.00;100374.19;4880609;29;20120;-70
2022/01/10 13:00:40;;;;;;;40.90;23.20;;;;;;;4.65;100.00;100378.53;4880171;29;20039;-71
2022/01/10 13:03:26;;;;;;;51.05;26.45;;;;;;;4.72;100.00;100387.16;4880171;29;20185;-70
2022/01/10 13:06:12;;;;;;;51.63;24.65;;;;;;;4.57;100.00;100389.75;4880088;29;20362;-71
2022/01/10 13:08:58;;;;;;;58.15;28.27;;;;;;;4.81;100.00;100410.53;4879669;29;20037;-70
2022/01/10 13:15:42;;;;;;;38.70;21.92;;;;;;;4.81;100.00;100410.53;4879866;29;20033;-71
2022/01/10 13:18:28;;;;;;;37.55;20.52;;;;;;;4.63;100.00;100400.13;4882832;29;20130;-71
2022/01/10 13:21:50;;;;;;;36.08;19.38;;;;;;;4.54;100.00;100400.97;4883853;29;20150;-70
2022/01/10 13:24:46;;;;;;;32.58;17.98;;;;;;;4.70;100.00;100410.50;4884503;29;20136;-69
2022/01/10 13:27:33;;;;;;;35.10;18.27;;;;;;;4.50;100.00;100420.00;4883576;29;20029;-71
2022/01/10 13:30:25;;;;;;;33.08;18.42;;;;;;;4.48;100.00;100415.66;4884412;29;20114;-70
2022/01/10 13:33:10;;;;;;;36.10;18.55;;;;;;;4.42;100.00;100428.63;4883387;29;20033;-70
2022/01/10 13:38:31;;;;;;;36.20;20.08;;;;;;;4.79;100.00;100433.88;5663192;23;20068;-70
2022/01/10 13:41:17;;;;;;;35.60;19.25;;;;;;;4.37;100.00;100441.56;4901708;29;20120;-70
2022/01/10 13:44:03;;;;;;;45.85;24.10;;;;;;;4.43;100.00;100459.72;4901002;29;20017;-68
2022/01/10 13:47:11;;;;;;;53.80;24.63;;;;;;;4.52;100.00;100441.63;4889698;29;20523;-69
2022/01/10 13:50:15;;;;;;;51.78;24.50;;;;;;;4.32;100.00;100461.44;4883673;29;20069;-71
2022/01/10 13:53:11;;;;;;;42.90;23.35;;;;;;;4.24;100.00;100465.75;4882598;29;20025;-70
2022/01/10 13:56:13;;;;;;;55.22;26.30;;;;;;;4.27;100.00;100476.09;4882406;29;20033;-70
2022/01/10 13:59:02;;;;;;;46.28;23.95;;;;;;;4.42;100.00;100489.13;4882885;29;20064;-69
2022/01/10 14:01:54;;;;;;;46.03;23.65;;;;;;;4.36;100.00;100476.16;4883032;29;20079;-70
2022/01/10 14:04:40;;;;;;;40.45;21.10;;;;;;;4.23;100.00;100482.13;4883997;29;20458;-68
2022/01/10 14:07:33;;;;;;;42.33;21.90;;;;;;;4.31;100.00;100492.56;4881676;29;20036;-70
2022/01/10 14:10:19;;;;;;;44.53;22.02;;;;;;;4.16;100.00;100490.78;4882868;29;20033;-70
2022/01/10 14:13:04;;;;;;;46.45;24.33;;;;;;;4.23;100.00;100500.28;4882391;29;20065;-70
2022/01/10 14:15:53;;;;;;;50.65;25.65;;;;;;;4.30;100.00;100499.47;4882632;29;20048;-72
2022/01/10 14:18:40;;;;;;;55.10;28.05;;;;;;;4.11;100.00;100484.69;4882672;29;20028;-72
2022/01/10 14:21:26;;;;;;;56.05;27.70;;;;;;;4.26;100.00;100495.13;4882830;29;20097;-72
2022/01/10 14:24:12;;;;;;;52.92;27.42;;;;;;;4.30;100.00;100502.06;4869589;29;20025;-72
2022/01/10 14:26:58;;;;;;;64.40;30.58;;;;;;;4.15;100.00;100506.31;4882609;29;20047;-72
2022/01/10 14:29:43;;;;;;;61.45;29.42;;;;;;;4.29;100.00;100507.22;4881180;29;20040;-72
2022/01/10 14:32:29;;;;;;;56.80;28.85;;;;;;;4.14;100.00;100513.22;4882318;29;20029;-71
2022/01/10 14:40:16;;;;;;;69.30;32.65;;;;;;;4.07;100.00;100521.81;5602438;23;20458;-72
2022/01/10 14:43:02;;;;;;;77.50;39.25;;;;;;;4.35;100.00;100528.88;4901161;29;20049;-71